Main page
METAR-TAF:

METAR-TAF

Airports :

Brive–Dordogne Valley Airport

Brive-la-Gaillarde, France

latitude: 45-02-28N, longitude: 001-28-59E, elevation: 311 m

Current weather observation

The report was made 33 minutes ago, at 04:00 UTC
Wind 5 kt from the North/Northwest
Temperature 3°C
Humidity 93%
Pressure 1017 hPa
Visibility 10 km or more
Overcast at a height of 2900 ft

METAR: LFSL 210400Z AUTO 33005KT 9999 OVC029 03/02 Q1017

Time: 05:33 (04:33 UTC)

Forecast

The report was made 2 hours and 33 minutes ago, at 02:00 UTC
Forecast valid from 21 at 03 UTC to 21 at 12 UTC
Wind 5 kt from the North/Northwest
Visibility 10 km or more
Scattered clouds at a height of 1300 ft
Broken clouds at a height of 2000 ft
Probability 30% :
Temporary
from 21 at 03 UTC to 21 at 08 UTC
Broken clouds at a height of 700 ft

TAF: LFSL 210200Z 2103/2112 34005KT 9999 SCT013 BKN020 PROB30 TEMPO 2103/2108 BKN007

Weather observations and forecasts of more than 4000 airports (METAR and TAF reports).

The available stations are represented by yellow and red dots on the map.

Hover mouse over dot to see the name of the station.

Then click to see weather observations and forecasts.

To change the map : click on the green buttons with a black cross to zoom in, on the green button with a dash to zoom out, or on the green arrows for adjacent maps.


METAR-TAF: